createdAt,value
2022-08-24T00:00:12.769Z,26.17
2022-08-24T00:02:41.569Z,27.17
2022-08-24T00:05:14.555Z,25.60
2022-08-24T00:07:43.451Z,25.30
2022-08-24T00:10:13.485Z,26.50
2022-08-24T00:12:41.736Z,25.43
2022-08-24T00:15:13.917Z,25.80
2022-08-24T00:17:42.471Z,26.00
2022-08-24T00:20:12.555Z,26.00
2022-08-24T00:22:41.278Z,26.87
2022-08-24T00:25:11.099Z,26.47
2022-08-24T00:27:41.163Z,25.40
2022-08-24T00:30:15.451Z,25.80
2022-08-24T00:32:44.431Z,26.00
2022-08-24T00:35:13.551Z,25.00
2022-08-24T00:37:42.028Z,25.50
2022-08-24T00:40:13.871Z,25.23
2022-08-24T00:42:43.804Z,25.00
2022-08-24T00:45:17.377Z,24.67
2022-08-24T00:47:50.367Z,23.67
2022-08-24T00:50:24.070Z,25.70
2022-08-24T00:52:56.495Z,25.47
2022-08-24T00:55:30.532Z,25.50
2022-08-24T00:58:03.119Z,24.57
2022-08-24T01:00:48.592Z,26.27
2022-08-24T01:03:18.019Z,25.97
2022-08-24T01:05:47.049Z,25.60
2022-08-24T01:08:17.168Z,26.30
2022-08-24T01:10:50.585Z,25.90
2022-08-24T01:13:18.876Z,26.83
2022-08-24T01:15:51.576Z,26.00
2022-08-24T01:18:40.720Z,26.40
2022-08-24T01:21:15.765Z,26.93
2022-08-24T01:23:49.566Z,27.70
2022-08-24T01:26:22.736Z,28.63
2022-08-24T01:28:56.677Z,27.53
2022-08-24T01:31:26.562Z,27.77
2022-08-24T01:33:56.694Z,27.30
2022-08-24T01:36:33.005Z,28.03
2022-08-24T01:39:08.276Z,27.67
2022-08-24T01:41:36.538Z,27.60
2022-08-24T01:44:05.640Z,26.73
2022-08-24T01:46:34.763Z,27.87
2022-08-24T01:49:03.992Z,28.27
2022-08-24T01:51:33.462Z,27.80
2022-08-24T01:54:03.688Z,28.40
2022-08-24T01:56:34.129Z,28.47
2022-08-24T01:59:05.107Z,27.53
2022-08-24T02:01:38.822Z,29.47
2022-08-24T02:04:09.688Z,27.97
2022-08-24T02:06:40.809Z,30.53
2022-08-24T02:13:25.152Z,27.93
2022-08-24T02:15:53.475Z,29.20
2022-08-24T02:18:21.894Z,28.93
2022-08-24T02:20:50.387Z,27.70
2022-08-24T02:23:18.762Z,27.23
2022-08-24T02:25:47.038Z,27.37
2022-08-24T02:28:15.330Z,27.03
2022-08-24T02:30:45.043Z,27.90
2022-08-24T02:33:13.394Z,27.80
2022-08-24T02:35:42.418Z,29.20
2022-08-24T02:38:11.035Z,28.90
2022-08-24T02:40:40.413Z,31.00
2022-08-24T02:43:08.863Z,31.13
2022-08-24T02:45:41.109Z,29.40
2022-08-24T02:48:11.892Z,30.10
2022-08-24T02:50:41.181Z,29.07
2022-08-24T02:53:09.787Z,30.00
2022-08-24T02:55:41.196Z,30.13
2022-08-24T02:58:10.757Z,30.13
2022-08-24T03:00:40.913Z,31.10
2022-08-24T03:03:11.582Z,30.00
2022-08-24T03:05:40.653Z,29.93
2022-08-24T03:08:09.560Z,29.37
2022-08-24T03:10:40.979Z,29.60
2022-08-24T03:13:10.174Z,29.63
2022-08-24T03:15:41.770Z,30.47
2022-08-24T03:18:11.695Z,30.23
2022-08-24T03:20:43.975Z,31.13
2022-08-24T03:23:12.819Z,28.87
2022-08-24T03:25:41.161Z,29.87
2022-08-24T03:28:11.169Z,30.47
2022-08-24T03:30:43.775Z,29.63
2022-08-24T03:33:21.503Z,29.80
2022-08-24T03:35:50.307Z,28.80
2022-08-24T03:38:19.609Z,30.10
2022-08-24T03:40:48.116Z,29.47
2022-08-24T03:43:30.617Z,29.60
2022-08-24T03:46:02.886Z,32.00
2022-08-24T03:48:32.563Z,30.20
2022-08-24T03:51:00.916Z,31.50
2022-08-24T03:53:29.268Z,29.53
2022-08-24T03:55:57.619Z,29.60
2022-08-24T03:58:26.190Z,29.17
2022-08-24T04:00:59.364Z,29.80
2022-08-24T04:03:28.194Z,28.43
2022-08-24T04:06:02.797Z,28.97
2022-08-24T04:08:31.817Z,30.70
2022-08-24T04:11:00.286Z,28.20
2022-08-24T04:13:32.084Z,29.73
2022-08-24T04:16:06.171Z,29.10
2022-08-24T04:18:34.805Z,29.00
2022-08-24T04:21:04.834Z,28.17
2022-08-24T04:23:47.003Z,29.67
2022-08-24T04:26:45.152Z,27.93
2022-08-24T04:29:09.410Z,29.07
2022-08-24T04:31:43.111Z,29.33
2022-08-24T04:34:13.123Z,28.33
2022-08-24T04:36:43.424Z,28.50
2022-08-24T04:39:11.705Z,28.73
2022-08-24T04:41:59.933Z,28.80
2022-08-24T04:44:34.276Z,28.83
2022-08-24T04:47:02.993Z,27.53
2022-08-24T04:49:35.047Z,29.10
2022-08-24T04:52:08.198Z,27.83
2022-08-24T04:54:36.637Z,27.23
2022-08-24T04:57:19.736Z,28.97
2022-08-24T04:59:49.225Z,28.70
2022-08-24T05:02:18.498Z,27.97
2022-08-24T05:04:50.122Z,27.67
2022-08-24T05:07:20.299Z,26.93
2022-08-24T05:09:48.896Z,28.13
2022-08-24T05:12:21.481Z,29.40
2022-08-24T05:15:00.611Z,29.40
2022-08-24T05:17:30.603Z,28.57
2022-08-24T05:19:59.527Z,28.47
2022-08-24T05:22:33.531Z,28.50
2022-08-24T05:25:02.462Z,28.07
2022-08-24T05:27:30.848Z,29.00
2022-08-24T05:29:59.237Z,28.20
2022-08-24T05:32:30.176Z,28.60
2022-08-24T05:35:01.545Z,28.43
2022-08-24T05:37:30.164Z,29.10
2022-08-24T05:40:16.313Z,28.20
2022-08-24T05:42:48.791Z,28.27
2022-08-24T05:45:17.793Z,28.20
2022-08-24T05:47:46.071Z,28.40
2022-08-24T05:50:54.064Z,28.47
2022-08-24T05:53:22.454Z,29.23
2022-08-24T05:55:52.810Z,29.10
2022-08-24T05:58:30.624Z,29.67
2022-08-24T06:01:07.753Z,30.40
2022-08-24T06:03:36.036Z,28.70
2022-08-24T06:06:08.393Z,28.87
2022-08-24T06:08:41.239Z,28.50
2022-08-24T06:11:13.877Z,29.27
2022-08-24T06:13:51.905Z,29.50
2022-08-24T06:16:43.276Z,28.70
2022-08-24T06:19:14.082Z,29.60
2022-08-24T06:21:43.660Z,29.97
2022-08-24T06:24:12.734Z,29.20
2022-08-24T06:27:00.370Z,30.20
2022-08-24T06:29:28.991Z,30.47
2022-08-24T06:32:06.407Z,31.00
2022-08-24T06:34:39.291Z,30.47
2022-08-24T06:37:07.794Z,28.63
2022-08-24T06:39:36.847Z,29.73
2022-08-24T06:42:08.832Z,31.27
2022-08-24T06:44:39.002Z,29.33
2022-08-24T06:47:22.700Z,29.27
2022-08-24T06:50:00.088Z,29.80
2022-08-24T06:52:29.999Z,28.53
2022-08-24T06:54:58.467Z,29.67
2022-08-24T06:57:28.813Z,32.73
2022-08-24T06:59:57.635Z,28.83
2022-08-24T07:02:26.194Z,28.77
2022-08-24T07:04:54.915Z,29.43
2022-08-24T07:07:42.190Z,29.60
2022-08-24T07:10:11.658Z,29.17
2022-08-24T07:12:41.882Z,31.00
2022-08-24T07:15:16.466Z,28.80
2022-08-24T07:17:58.293Z,30.70
2022-08-24T07:20:26.494Z,28.40
2022-08-24T07:23:14.901Z,28.40
2022-08-24T07:25:49.604Z,28.60
2022-08-24T07:28:31.781Z,28.47
2022-08-24T07:31:03.686Z,29.70
2022-08-24T07:33:36.659Z,29.10
2022-08-24T07:36:06.176Z,27.63
2022-08-24T07:38:35.212Z,28.60
2022-08-24T07:41:35.352Z,28.70
2022-08-24T07:43:57.060Z,28.60
2022-08-24T07:46:25.801Z,28.70
2022-08-24T07:49:05.107Z,29.00
2022-08-24T07:51:44.976Z,28.77
2022-08-24T07:54:17.861Z,28.53
2022-08-24T07:56:46.267Z,27.37
2022-08-24T07:59:16.095Z,29.10
2022-08-24T08:01:44.343Z,28.40
2022-08-24T08:04:14.276Z,28.90
2022-08-24T08:06:44.807Z,27.70
2022-08-24T08:09:13.012Z,27.63
2022-08-24T08:11:41.675Z,26.97
2022-08-24T08:14:09.858Z,27.40
2022-08-24T08:16:39.499Z,25.77
2022-08-24T08:19:18.899Z,30.30
2022-08-24T08:22:11.981Z,28.03
2022-08-24T08:25:10.921Z,26.77
2022-08-24T08:27:49.176Z,28.30
2022-08-24T08:30:22.434Z,27.07
2022-08-24T08:32:57.536Z,27.23
2022-08-24T08:36:07.575Z,27.80
2022-08-24T08:38:46.335Z,26.63
2022-08-24T08:42:02.973Z,26.30
2022-08-24T08:44:56.244Z,26.77
2022-08-24T08:47:57.040Z,24.97
2022-08-24T08:50:41.026Z,24.73
2022-08-24T08:53:47.497Z,25.20
2022-08-24T08:56:23.984Z,25.20
2022-08-24T08:59:04.367Z,25.07
2022-08-24T09:02:12.228Z,23.43
2022-08-24T09:05:02.570Z,24.67
2022-08-24T09:07:46.301Z,23.73
2022-08-24T09:10:37.182Z,22.43
2022-08-24T09:13:25.409Z,26.20
2022-08-24T09:16:10.893Z,24.70
2022-08-24T09:19:01.214Z,25.50
2022-08-24T09:21:55.716Z,24.60
2022-08-24T09:24:49.101Z,25.43
2022-08-24T09:27:42.250Z,25.43
2022-08-24T09:30:18.405Z,24.20
2022-08-24T09:33:10.522Z,24.27
2022-08-24T09:36:10.521Z,23.30
2022-08-24T09:39:07.224Z,24.60
2022-08-24T09:42:11.725Z,24.70
2022-08-24T09:45:14.397Z,24.73
2022-08-24T09:48:03.733Z,24.50
2022-08-24T09:50:59.786Z,24.77
2022-08-24T09:54:00.271Z,25.13
2022-08-24T09:57:11.734Z,23.70
2022-08-24T10:00:09.998Z,24.80
2022-08-24T10:03:26.255Z,23.90
2022-08-24T10:06:24.039Z,24.70
2022-08-24T10:09:12.275Z,24.83
2022-08-24T10:11:51.048Z,24.20
2022-08-24T10:14:36.824Z,23.60
2022-08-24T10:17:17.377Z,24.10
2022-08-24T10:20:01.416Z,23.60
2022-08-24T10:22:50.167Z,23.80
2022-08-24T10:25:31.761Z,24.07
2022-08-24T10:28:16.331Z,24.50
2022-08-24T10:31:07.811Z,24.97
2022-08-24T10:33:56.012Z,25.17
2022-08-24T10:36:53.217Z,24.73
2022-08-24T10:39:52.788Z,25.93
2022-08-24T10:43:11.497Z,23.97
2022-08-24T10:46:00.750Z,23.70
2022-08-24T10:49:23.434Z,23.60
2022-08-24T10:52:20.382Z,22.83
2022-08-24T10:54:49.701Z,23.37
2022-08-24T10:57:26.669Z,23.33
2022-08-24T11:00:04.940Z,24.50
2022-08-24T11:02:35.762Z,22.90
2022-08-24T11:05:08.329Z,24.17
2022-08-24T11:07:54.589Z,24.23
2022-08-24T11:10:27.846Z,23.97
2022-08-24T11:12:56.628Z,23.77
2022-08-24T11:15:28.238Z,21.83
2022-08-24T11:17:58.977Z,22.90
2022-08-24T11:20:31.532Z,23.33
2022-08-24T11:23:05.258Z,23.40
2022-08-24T11:25:38.745Z,23.30
2022-08-24T11:28:20.603Z,23.00
2022-08-24T11:30:49.446Z,28.07
2022-08-24T11:33:30.423Z,22.17
2022-08-24T11:36:00.940Z,22.47
2022-08-24T11:38:34.963Z,23.33
2022-08-24T11:41:08.758Z,23.63
2022-08-24T11:43:52.813Z,22.73
2022-08-24T11:46:29.811Z,24.20
2022-08-24T11:49:09.497Z,23.07
2022-08-24T11:51:44.539Z,22.33
2022-08-24T11:54:24.685Z,23.67
2022-08-24T11:57:08.491Z,23.40
2022-08-24T11:59:46.553Z,22.93
2022-08-24T12:02:24.546Z,22.67
2022-08-24T12:04:58.819Z,23.20
2022-08-24T12:07:36.521Z,24.17
2022-08-24T12:10:19.821Z,23.23
2022-08-24T12:12:52.895Z,25.23
2022-08-24T12:15:34.992Z,24.37
2022-08-24T12:18:07.736Z,24.70
2022-08-24T12:20:48.145Z,25.13
2022-08-24T12:23:24.691Z,25.67
2022-08-24T12:26:03.654Z,22.37
2022-08-24T12:28:38.058Z,23.47
2022-08-24T12:31:16.039Z,22.93
2022-08-24T12:33:52.187Z,22.80
2022-08-24T12:36:37.563Z,21.93
2022-08-24T12:39:11.920Z,22.20
2022-08-24T12:41:50.409Z,22.20
2022-08-24T12:44:21.100Z,22.47
2022-08-24T12:46:54.505Z,22.47
2022-08-24T12:49:30.357Z,22.50
2022-08-24T12:52:31.989Z,22.57
2022-08-24T12:55:22.213Z,21.40
2022-08-24T12:58:31.043Z,21.83
2022-08-24T13:00:54.486Z,22.53
2022-08-24T13:03:32.652Z,21.70
2022-08-24T13:06:05.919Z,22.70
2022-08-24T13:08:38.238Z,23.50
2022-08-24T13:11:15.842Z,23.57
2022-08-24T13:13:49.141Z,23.30
2022-08-24T13:16:50.850Z,22.53
2022-08-24T13:19:34.106Z,23.47
2022-08-24T13:22:38.985Z,23.50
2022-08-24T13:25:25.034Z,23.40
2022-08-24T13:28:07.668Z,22.90
2022-08-24T13:31:13.980Z,23.83
2022-08-24T13:33:47.717Z,23.90
2022-08-24T13:36:45.013Z,23.50
2022-08-24T13:39:48.166Z,23.23
2022-08-24T13:42:31.124Z,22.03
2022-08-24T13:45:17.919Z,22.07
2022-08-24T13:48:10.053Z,22.27
2022-08-24T13:50:46.642Z,22.97
2022-08-24T13:53:37.539Z,23.00
2022-08-24T13:56:34.072Z,22.97
2022-08-24T13:59:10.374Z,23.30
2022-08-24T14:01:53.317Z,23.90
2022-08-24T14:04:38.436Z,23.30
2022-08-24T14:07:15.772Z,23.07
2022-08-24T14:10:02.574Z,22.37
2022-08-24T14:12:50.754Z,24.07
2022-08-24T14:15:29.006Z,23.20
2022-08-24T14:18:10.398Z,25.13
2022-08-24T14:21:01.399Z,23.80
2022-08-24T14:23:50.350Z,23.20
2022-08-24T14:26:58.844Z,23.40
2022-08-24T14:29:35.763Z,23.40
2022-08-24T14:32:44.914Z,24.53
2022-08-24T14:35:39.591Z,24.50
2022-08-24T14:38:34.854Z,23.47
2022-08-24T14:41:17.150Z,24.60
2022-08-24T14:44:03.765Z,24.90
2022-08-24T14:46:39.399Z,23.70
2022-08-24T14:49:16.875Z,25.70
2022-08-24T14:52:00.745Z,25.07
2022-08-24T14:58:21.445Z,25.53
2022-08-24T15:01:45.432Z,25.10
2022-08-24T15:04:38.473Z,24.43
2022-08-24T15:07:29.867Z,24.73
2022-08-24T15:10:02.295Z,26.53
2022-08-24T15:12:45.404Z,26.30
2022-08-24T15:15:35.919Z,26.93
2022-08-24T15:18:11.444Z,26.90
2022-08-24T15:20:47.233Z,27.93
2022-08-24T15:23:24.335Z,30.03
2022-08-24T15:26:00.151Z,26.83
2022-08-24T15:28:34.281Z,26.40
2022-08-24T15:31:10.615Z,26.50
2022-08-24T15:33:54.278Z,27.67
2022-08-24T15:36:22.605Z,28.73
2022-08-24T15:38:53.926Z,29.10
2022-08-24T15:41:32.292Z,29.30
2022-08-24T15:44:04.661Z,29.20
2022-08-24T15:46:40.855Z,28.60
2022-08-24T15:49:17.396Z,26.73
2022-08-24T15:51:56.702Z,28.63
2022-08-24T15:54:33.809Z,27.00
2022-08-24T15:57:05.813Z,26.07
2022-08-24T15:59:48.179Z,27.47
2022-08-24T16:02:31.567Z,26.23
2022-08-24T16:05:20.765Z,24.53
2022-08-24T16:08:11.536Z,24.00
2022-08-24T16:10:44.217Z,23.97
2022-08-24T16:13:30.523Z,23.90
2022-08-24T16:16:03.237Z,23.93
2022-08-24T16:18:49.941Z,24.37
2022-08-24T16:21:22.477Z,24.93
2022-08-24T16:24:01.433Z,24.23
2022-08-24T16:26:31.903Z,23.23
2022-08-24T16:29:02.417Z,23.83
2022-08-24T16:31:52.007Z,25.27
2022-08-24T16:34:29.768Z,24.07
2022-08-24T16:37:00.508Z,24.80
2022-08-24T16:39:29.190Z,25.27
2022-08-24T16:42:03.665Z,25.93
2022-08-24T16:44:39.085Z,26.53
2022-08-24T16:47:08.809Z,25.00
2022-08-24T16:49:40.242Z,25.67
2022-08-24T16:52:10.701Z,25.10
2022-08-24T16:54:43.190Z,25.87
2022-08-24T16:57:17.154Z,25.03
2022-08-24T16:59:49.676Z,24.50
2022-08-24T17:02:20.341Z,23.97
2022-08-24T17:04:49.063Z,24.77
2022-08-24T17:07:22.430Z,25.83
2022-08-24T17:09:50.777Z,24.00
2022-08-24T17:12:22.456Z,24.40
2022-08-24T17:14:52.363Z,24.87
2022-08-24T17:17:22.776Z,24.30
2022-08-24T17:19:53.040Z,25.63
2022-08-24T17:22:21.743Z,23.60
2022-08-24T17:24:50.661Z,23.20
2022-08-24T17:27:21.465Z,23.40
2022-08-24T17:29:51.414Z,25.07
2022-08-24T17:32:23.282Z,23.77
2022-08-24T17:34:52.075Z,24.40
2022-08-24T17:37:21.355Z,24.77
2022-08-24T17:39:55.082Z,23.30
2022-08-24T17:42:49.080Z,23.50
2022-08-24T17:45:14.850Z,24.33
2022-08-24T17:47:44.224Z,25.37
2022-08-24T17:50:16.218Z,25.30
2022-08-24T17:52:45.115Z,24.77
2022-08-24T17:55:15.427Z,24.90
2022-08-24T17:57:49.019Z,25.20
2022-08-24T18:00:19.254Z,25.13
2022-08-24T18:02:50.183Z,26.53
2022-08-24T18:05:19.072Z,25.30
2022-08-24T18:07:54.608Z,24.67
2022-08-24T18:10:25.631Z,24.63
2022-08-24T18:12:54.483Z,25.00
2022-08-24T18:15:30.129Z,25.20
2022-08-24T18:18:06.728Z,28.07
2022-08-24T18:20:39.914Z,27.33
2022-08-24T18:23:11.833Z,29.23
2022-08-24T18:25:51.160Z,28.23
2022-08-24T18:28:24.398Z,28.40
2022-08-24T18:30:55.101Z,29.87
2022-08-24T18:33:53.141Z,27.50
2022-08-24T18:36:30.639Z,29.70
2022-08-24T18:39:05.112Z,28.70
2022-08-24T18:44:48.972Z,28.83
2022-08-24T18:47:27.338Z,28.20
2022-08-24T18:50:20.790Z,27.30
2022-08-24T18:53:13.512Z,28.70
2022-08-24T18:55:57.768Z,28.40
2022-08-24T18:58:44.337Z,28.37
2022-08-24T19:01:20.906Z,29.63
2022-08-24T19:03:51.657Z,29.23
2022-08-24T19:06:48.462Z,30.20
2022-08-24T19:09:23.348Z,30.90
2022-08-24T19:13:19.820Z,31.50
2022-08-24T19:20:19.253Z,31.07
2022-08-24T19:26:04.531Z,31.70
2022-08-24T19:36:00.284Z,33.80
2022-08-24T19:39:31.734Z,35.40
2022-08-24T19:42:23.114Z,34.50
2022-08-24T19:48:03.730Z,34.10
2022-08-24T19:53:59.149Z,31.77
2022-08-24T19:56:36.250Z,31.33
2022-08-24T19:59:59.513Z,32.40
2022-08-24T20:03:54.163Z,31.93
2022-08-24T20:07:04.703Z,32.93
2022-08-24T20:09:54.727Z,32.50
2022-08-24T20:12:57.763Z,30.60
2022-08-24T20:16:10.543Z,30.60
2022-08-24T20:23:02.292Z,31.10
2022-08-24T20:25:44.276Z,32.50
2022-08-24T20:28:38.189Z,30.20
2022-08-24T20:31:45.237Z,31.50
2022-08-24T20:34:20.362Z,30.90
2022-08-24T20:37:03.071Z,30.77
2022-08-24T20:39:52.013Z,30.10
2022-08-24T20:42:23.477Z,28.70
2022-08-24T20:44:57.395Z,31.83
2022-08-24T20:47:26.508Z,32.10
2022-08-24T20:49:54.860Z,30.50
2022-08-24T20:52:23.314Z,31.40
2022-08-24T20:55:06.237Z,29.20
2022-08-24T20:58:03.364Z,28.77
2022-08-24T21:00:34.555Z,29.83
2022-08-24T21:03:03.165Z,30.47
2022-08-24T21:05:36.365Z,32.13
2022-08-24T21:08:12.305Z,31.60
2022-08-24T21:10:45.570Z,31.23
2022-08-24T21:13:19.211Z,32.23
2022-08-24T21:15:57.858Z,33.67
2022-08-24T21:18:29.933Z,34.30
2022-08-24T21:21:03.761Z,34.93
2022-08-24T21:23:33.987Z,35.17
2022-08-24T21:26:13.191Z,35.07
2022-08-24T21:28:43.480Z,33.70
2022-08-24T21:31:23.682Z,36.10
2022-08-24T21:34:26.644Z,35.90
2022-08-24T21:37:12.326Z,33.33
2022-08-24T21:39:41.194Z,34.27
2022-08-24T21:42:17.003Z,35.20
2022-08-24T21:44:50.265Z,36.37
2022-08-24T21:47:29.748Z,35.30
2022-08-24T21:50:04.481Z,35.53
2022-08-24T21:52:40.719Z,35.70
2022-08-24T21:55:14.767Z,35.00
2022-08-24T21:57:51.999Z,36.40
2022-08-24T22:00:30.788Z,34.80
2022-08-24T22:02:59.725Z,35.60
2022-08-24T22:05:27.983Z,35.87
2022-08-24T22:07:56.350Z,33.97
2022-08-24T22:10:26.471Z,35.57
2022-08-24T22:12:58.020Z,35.70
2022-08-24T22:15:28.222Z,36.87
2022-08-24T22:17:56.540Z,35.43
2022-08-24T22:20:24.791Z,36.30
2022-08-24T22:22:53.281Z,35.00
2022-08-24T22:25:21.667Z,34.80
2022-08-24T22:27:49.929Z,34.80
2022-08-24T22:30:24.362Z,33.20
2022-08-24T22:32:52.808Z,34.37
2022-08-24T22:35:24.173Z,34.33
2022-08-24T22:37:53.267Z,33.43
2022-08-24T22:40:21.664Z,32.83
2022-08-24T22:42:49.901Z,32.90
2022-08-24T22:45:18.219Z,31.80
2022-08-24T22:47:47.833Z,32.73
2022-08-24T22:50:16.551Z,32.40
2022-08-24T22:52:48.088Z,32.27
2022-08-24T22:55:16.504Z,32.70
2022-08-24T22:57:44.894Z,31.40
2022-08-24T23:00:18.580Z,32.30
2022-08-24T23:02:49.996Z,32.60
2022-08-24T23:05:18.315Z,31.00
2022-08-24T23:07:46.411Z,33.93
2022-08-24T23:10:17.168Z,31.73
2022-08-24T23:12:45.374Z,33.77
2022-08-24T23:15:16.997Z,32.73
2022-08-24T23:17:45.589Z,32.87
2022-08-24T23:20:14.277Z,33.00
2022-08-24T23:22:43.689Z,33.67
2022-08-24T23:25:15.914Z,32.57
2022-08-24T23:27:46.525Z,31.53
2022-08-24T23:30:19.997Z,30.33
2022-08-24T23:32:49.231Z,32.03
2022-08-24T23:35:21.542Z,32.23
2022-08-24T23:37:57.703Z,33.13
2022-08-24T23:40:25.905Z,31.13
2022-08-24T23:42:56.386Z,31.47
2022-08-24T23:45:28.470Z,30.90
2022-08-24T23:47:58.815Z,31.07
2022-08-24T23:50:28.673Z,31.83
2022-08-24T23:52:56.829Z,30.90
2022-08-24T23:55:25.158Z,30.97
2022-08-24T23:57:54.419Z,31.93
